sensor_id;sensor_type;location;lat;lon;timestamp;P1;durP1;ratioP1;P2;durP2;ratioP2
36555;SDS011;40859;50.560;7.268;2022-07-24T10:53:54;8.25;;;4.28;;
36555;SDS011;40859;50.560;7.268;2022-07-24T10:56:42;8.50;;;4.80;;
36555;SDS011;40859;50.560;7.268;2022-07-24T10:59:14;7.55;;;5.12;;
36555;SDS011;40859;50.560;7.268;2022-07-24T11:16:25;9.77;;;4.37;;
36555;SDS011;40859;50.560;7.268;2022-07-24T11:22:04;8.48;;;4.57;;
36555;SDS011;40859;50.560;7.268;2022-07-24T11:24:31;7.90;;;4.62;;
36555;SDS011;40859;50.560;7.268;2022-07-24T11:27:04;8.02;;;4.55;;
36555;SDS011;40859;50.560;7.268;2022-07-24T11:29:35;6.75;;;4.55;;
36555;SDS011;40859;50.560;7.268;2022-07-24T11:32:07;7.85;;;4.15;;
36555;SDS011;40859;50.560;7.268;2022-07-24T11:34:36;9.82;;;4.47;;
36555;SDS011;40859;50.560;7.268;2022-07-24T11:37:05;7.37;;;4.43;;
36555;SDS011;40859;50.560;7.268;2022-07-24T11:39:35;7.32;;;4.65;;
36555;SDS011;40859;50.560;7.268;2022-07-24T11:42:03;5.10;;;3.78;;
36555;SDS011;40859;50.560;7.268;2022-07-24T11:44:31;10.93;;;4.50;;
36555;SDS011;40859;50.560;7.268;2022-07-24T11:47:09;13.23;;;4.65;;
36555;SDS011;40859;50.560;7.268;2022-07-24T11:49:44;7.68;;;4.55;;
36555;SDS011;40859;50.560;7.268;2022-07-24T11:52:16;9.68;;;5.12;;
36555;SDS011;40859;50.560;7.268;2022-07-24T11:54:51;8.20;;;4.18;;
36555;SDS011;40859;50.560;7.268;2022-07-24T11:57:21;10.40;;;4.22;;
36555;SDS011;40859;50.560;7.268;2022-07-24T11:59:48;6.97;;;4.30;;
36555;SDS011;40859;50.560;7.268;2022-07-24T12:02:15;6.47;;;4.45;;
36555;SDS011;40859;50.560;7.268;2022-07-24T12:04:42;11.02;;;4.47;;
36555;SDS011;40859;50.560;7.268;2022-07-24T12:07:12;6.40;;;4.72;;
36555;SDS011;40859;50.560;7.268;2022-07-24T12:09:45;8.10;;;4.60;;
36555;SDS011;40859;50.560;7.268;2022-07-24T12:12:30;6.57;;;4.18;;
36555;SDS011;40859;50.560;7.268;2022-07-24T12:15:03;7.57;;;4.57;;
36555;SDS011;40859;50.560;7.268;2022-07-24T12:17:31;6.37;;;4.30;;
36555;SDS011;40859;50.560;7.268;2022-07-24T12:19:59;9.30;;;4.32;;
36555;SDS011;40859;50.560;7.268;2022-07-24T12:22:27;7.25;;;4.57;;
36555;SDS011;40859;50.560;7.268;2022-07-24T12:24:54;6.18;;;3.85;;
36555;SDS011;40859;50.560;7.268;2022-07-24T12:27:36;10.43;;;4.80;;
36555;SDS011;40859;50.560;7.268;2022-07-24T12:30:16;7.65;;;4.30;;
36555;SDS011;40859;50.560;7.268;2022-07-24T12:32:57;8.55;;;4.45;;
36555;SDS011;40859;50.560;7.268;2022-07-24T12:38:22;10.30;;;4.97;;
36555;SDS011;40859;50.560;7.268;2022-07-24T12:41:30;6.45;;;4.35;;
36555;SDS011;40859;50.560;7.268;2022-07-24T12:44:03;6.62;;;4.37;;
36555;SDS011;40859;50.560;7.268;2022-07-24T12:46:31;7.47;;;4.62;;
36555;SDS011;40859;50.560;7.268;2022-07-24T12:49:00;7.50;;;4.40;;
36555;SDS011;40859;50.560;7.268;2022-07-24T12:54:23;7.07;;;5.03;;
36555;SDS011;40859;50.560;7.268;2022-07-24T12:56:57;11.48;;;4.50;;
36555;SDS011;40859;50.560;7.268;2022-07-24T12:59:25;8.18;;;4.53;;
36555;SDS011;40859;50.560;7.268;2022-07-24T13:02:18;6.60;;;4.28;;
36555;SDS011;40859;50.560;7.268;2022-07-24T13:04:47;6.45;;;4.25;;
36555;SDS011;40859;50.560;7.268;2022-07-24T13:07:15;9.25;;;4.72;;
36555;SDS011;40859;50.560;7.268;2022-07-24T13:09:42;5.53;;;3.90;;
36555;SDS011;40859;50.560;7.268;2022-07-24T13:12:09;5.18;;;4.18;;
36555;SDS011;40859;50.560;7.268;2022-07-24T13:14:36;8.30;;;4.45;;
36555;SDS011;40859;50.560;7.268;2022-07-24T13:17:03;7.95;;;4.40;;
36555;SDS011;40859;50.560;7.268;2022-07-24T13:20:06;6.75;;;4.28;;
36555;SDS011;40859;50.560;7.268;2022-07-24T13:22:33;9.93;;;4.28;;
36555;SDS011;40859;50.560;7.268;2022-07-24T13:24:58;7.10;;;4.07;;
36555;SDS011;40859;50.560;7.268;2022-07-24T13:27:24;7.15;;;3.87;;
36555;SDS011;40859;50.560;7.268;2022-07-24T13:29:50;6.43;;;4.18;;
36555;SDS011;40859;50.560;7.268;2022-07-24T13:32:16;5.93;;;4.57;;
36555;SDS011;40859;50.560;7.268;2022-07-24T13:34:42;6.03;;;3.90;;
36555;SDS011;40859;50.560;7.268;2022-07-24T13:37:07;6.65;;;3.80;;
36555;SDS011;40859;50.560;7.268;2022-07-24T13:39:33;5.32;;;4.10;;
36555;SDS011;40859;50.560;7.268;2022-07-24T13:42:02;15.38;;;3.85;;
36555;SDS011;40859;50.560;7.268;2022-07-24T13:44:28;7.40;;;3.95;;
36555;SDS011;40859;50.560;7.268;2022-07-24T13:46:54;5.53;;;3.97;;
36555;SDS011;40859;50.560;7.268;2022-07-24T13:49:20;4.28;;;3.65;;
36555;SDS011;40859;50.560;7.268;2022-07-24T13:51:46;7.03;;;4.28;;
36555;SDS011;40859;50.560;7.268;2022-07-24T13:54:12;8.85;;;4.22;;
36555;SDS011;40859;50.560;7.268;2022-07-24T13:56:38;12.95;;;4.32;;
36555;SDS011;40859;50.560;7.268;2022-07-24T13:59:04;6.28;;;3.87;;
36555;SDS011;40859;50.560;7.268;2022-07-24T14:01:30;5.15;;;3.70;;
36555;SDS011;40859;50.560;7.268;2022-07-24T14:03:56;5.85;;;4.28;;
36555;SDS011;40859;50.560;7.268;2022-07-24T14:06:22;7.90;;;4.25;;
36555;SDS011;40859;50.560;7.268;2022-07-24T14:08:48;9.15;;;4.25;;
36555;SDS011;40859;50.560;7.268;2022-07-24T14:11:14;9.45;;;3.58;;
36555;SDS011;40859;50.560;7.268;2022-07-24T14:13:40;8.73;;;4.18;;
36555;SDS011;40859;50.560;7.268;2022-07-24T14:16:06;9.60;;;3.97;;
36555;SDS011;40859;50.560;7.268;2022-07-24T14:18:32;11.63;;;4.25;;
36555;SDS011;40859;50.560;7.268;2022-07-24T14:20:58;6.00;;;3.92;;
36555;SDS011;40859;50.560;7.268;2022-07-24T14:52:46;9.50;;;3.80;;
36555;SDS011;40859;50.560;7.268;2022-07-24T14:55:12;10.40;;;5.22;;
36555;SDS011;40859;50.560;7.268;2022-07-24T14:57:39;10.50;;;4.57;;
36555;SDS011;40859;50.560;7.268;2022-07-24T15:00:06;4.75;;;3.55;;
36555;SDS011;40859;50.560;7.268;2022-07-24T15:02:33;9.07;;;3.95;;
36555;SDS011;40859;50.560;7.268;2022-07-24T15:04:59;8.70;;;3.97;;
36555;SDS011;40859;50.560;7.268;2022-07-24T15:07:25;6.05;;;4.18;;
36555;SDS011;40859;50.560;7.268;2022-07-24T15:09:53;7.05;;;4.00;;
36555;SDS011;40859;50.560;7.268;2022-07-24T15:12:18;6.28;;;3.62;;
36555;SDS011;40859;50.560;7.268;2022-07-24T15:14:44;5.15;;;3.80;;
36555;SDS011;40859;50.560;7.268;2022-07-24T15:17:10;6.70;;;4.12;;
36555;SDS011;40859;50.560;7.268;2022-07-24T15:19:36;7.12;;;4.00;;
36555;SDS011;40859;50.560;7.268;2022-07-24T15:22:03;5.30;;;3.60;;
36555;SDS011;40859;50.560;7.268;2022-07-24T15:24:29;7.12;;;3.85;;
36555;SDS011;40859;50.560;7.268;2022-07-24T15:26:54;5.18;;;3.25;;
36555;SDS011;40859;50.560;7.268;2022-07-24T15:29:20;4.65;;;3.53;;
36555;SDS011;40859;50.560;7.268;2022-07-24T15:31:46;7.35;;;4.15;;
36555;SDS011;40859;50.560;7.268;2022-07-24T15:34:13;7.32;;;4.15;;
36555;SDS011;40859;50.560;7.268;2022-07-24T15:36:39;4.60;;;3.58;;
36555;SDS011;40859;50.560;7.268;2022-07-24T15:39:06;11.12;;;3.35;;
36555;SDS011;40859;50.560;7.268;2022-07-24T15:41:33;5.78;;;3.80;;
36555;SDS011;40859;50.560;7.268;2022-07-24T15:43:59;6.70;;;3.78;;
36555;SDS011;40859;50.560;7.268;2022-07-24T15:46:25;4.80;;;3.45;;
36555;SDS011;40859;50.560;7.268;2022-07-24T15:48:51;6.30;;;3.75;;
36555;SDS011;40859;50.560;7.268;2022-07-24T15:51:17;4.60;;;3.65;;
36555;SDS011;40859;50.560;7.268;2022-07-24T15:53:43;4.10;;;3.12;;
36555;SDS011;40859;50.560;7.268;2022-07-24T15:56:09;7.32;;;3.60;;
36555;SDS011;40859;50.560;7.268;2022-07-24T15:58:35;5.85;;;3.53;;
36555;SDS011;40859;50.560;7.268;2022-07-24T16:01:01;6.35;;;3.70;;
36555;SDS011;40859;50.560;7.268;2022-07-24T16:03:27;5.03;;;3.20;;
36555;SDS011;40859;50.560;7.268;2022-07-24T16:05:54;9.50;;;3.42;;
36555;SDS011;40859;50.560;7.268;2022-07-24T16:08:19;7.15;;;3.40;;
36555;SDS011;40859;50.560;7.268;2022-07-24T16:10:46;5.60;;;3.15;;
36555;SDS011;40859;50.560;7.268;2022-07-24T16:13:12;3.97;;;3.47;;
36555;SDS011;40859;50.560;7.268;2022-07-24T16:15:37;5.43;;;3.45;;
36555;SDS011;40859;50.560;7.268;2022-07-24T16:18:04;5.18;;;3.58;;
36555;SDS011;40859;50.560;7.268;2022-07-24T16:20:31;10.45;;;4.00;;
36555;SDS011;40859;50.560;7.268;2022-07-24T16:22:57;5.12;;;3.70;;
36555;SDS011;40859;50.560;7.268;2022-07-24T16:25:22;6.00;;;3.47;;
36555;SDS011;40859;50.560;7.268;2022-07-24T16:27:48;4.50;;;2.80;;
36555;SDS011;40859;50.560;7.268;2022-07-24T16:30:14;6.43;;;3.70;;
36555;SDS011;40859;50.560;7.268;2022-07-24T16:32:40;4.78;;;3.47;;
36555;SDS011;40859;50.560;7.268;2022-07-24T16:35:06;7.55;;;3.50;;
36555;SDS011;40859;50.560;7.268;2022-07-24T16:37:33;5.87;;;3.62;;
36555;SDS011;40859;50.560;7.268;2022-07-24T16:39:59;5.55;;;3.58;;
36555;SDS011;40859;50.560;7.268;2022-07-24T16:42:25;7.72;;;3.33;;
36555;SDS011;40859;50.560;7.268;2022-07-24T16:44:52;7.85;;;3.50;;
36555;SDS011;40859;50.560;7.268;2022-07-24T16:47:18;6.68;;;3.70;;
36555;SDS011;40859;50.560;7.268;2022-07-24T16:49:44;7.05;;;3.35;;
36555;SDS011;40859;50.560;7.268;2022-07-24T16:52:09;6.03;;;3.47;;
36555;SDS011;40859;50.560;7.268;2022-07-24T16:54:38;5.78;;;3.62;;
36555;SDS011;40859;50.560;7.268;2022-07-24T16:57:04;4.55;;;3.40;;
36555;SDS011;40859;50.560;7.268;2022-07-24T16:59:30;4.90;;;2.83;;
36555;SDS011;40859;50.560;7.268;2022-07-24T17:01:56;4.70;;;3.08;;
36555;SDS011;40859;50.560;7.268;2022-07-24T17:04:22;4.45;;;2.80;;
36555;SDS011;40859;50.560;7.268;2022-07-24T17:06:48;6.65;;;3.55;;
36555;SDS011;40859;50.560;7.268;2022-07-24T17:09:14;5.55;;;2.90;;
36555;SDS011;40859;50.560;7.268;2022-07-24T17:11:40;5.85;;;3.78;;
36555;SDS011;40859;50.560;7.268;2022-07-24T17:14:06;5.32;;;3.20;;
36555;SDS011;40859;50.560;7.268;2022-07-24T17:16:32;5.03;;;3.08;;
36555;SDS011;40859;50.560;7.268;2022-07-24T17:18:58;5.57;;;3.40;;
36555;SDS011;40859;50.560;7.268;2022-07-24T17:21:24;5.40;;;3.05;;
36555;SDS011;40859;50.560;7.268;2022-07-24T17:23:50;8.40;;;3.60;;
36555;SDS011;40859;50.560;7.268;2022-07-24T17:26:16;3.83;;;3.00;;
36555;SDS011;40859;50.560;7.268;2022-07-24T17:28:42;6.07;;;3.25;;
36555;SDS011;40859;50.560;7.268;2022-07-24T17:31:08;8.07;;;3.17;;
36555;SDS011;40859;50.560;7.268;2022-07-24T17:33:36;4.80;;;3.45;;
36555;SDS011;40859;50.560;7.268;2022-07-24T17:36:02;4.55;;;3.20;;
36555;SDS011;40859;50.560;7.268;2022-07-24T17:38:30;3.87;;;2.95;;
36555;SDS011;40859;50.560;7.268;2022-07-24T17:40:56;4.20;;;3.65;;
36555;SDS011;40859;50.560;7.268;2022-07-24T17:43:21;6.18;;;3.28;;
36555;SDS011;40859;50.560;7.268;2022-07-24T17:45:47;5.45;;;3.20;;
36555;SDS011;40859;50.560;7.268;2022-07-24T17:48:13;4.18;;;3.47;;
36555;SDS011;40859;50.560;7.268;2022-07-24T17:50:39;6.30;;;3.53;;
36555;SDS011;40859;50.560;7.268;2022-07-24T17:53:05;5.45;;;3.62;;
36555;SDS011;40859;50.560;7.268;2022-07-24T17:55:31;8.27;;;3.28;;
36555;SDS011;40859;50.560;7.268;2022-07-24T17:57:58;9.77;;;3.50;;
36555;SDS011;40859;50.560;7.268;2022-07-24T18:00:25;8.23;;;3.17;;
36555;SDS011;40859;50.560;7.268;2022-07-24T18:02:51;8.90;;;3.72;;
36555;SDS011;40859;50.560;7.268;2022-07-24T18:05:17;5.15;;;3.65;;
36555;SDS011;40859;50.560;7.268;2022-07-24T18:07:43;6.65;;;3.72;;
36555;SDS011;40859;50.560;7.268;2022-07-24T18:10:10;7.68;;;3.53;;
36555;SDS011;40859;50.560;7.268;2022-07-24T18:12:38;7.60;;;4.35;;
36555;SDS011;40859;50.560;7.268;2022-07-24T18:15:04;11.25;;;3.95;;
36555;SDS011;40859;50.560;7.268;2022-07-24T18:17:31;6.43;;;3.83;;
36555;SDS011;40859;50.560;7.268;2022-07-24T18:19:57;8.18;;;4.37;;
36555;SDS011;40859;50.560;7.268;2022-07-24T18:22:23;8.40;;;4.15;;
36555;SDS011;40859;50.560;7.268;2022-07-24T18:24:51;6.82;;;4.05;;
36555;SDS011;40859;50.560;7.268;2022-07-24T18:27:18;10.13;;;4.87;;
36555;SDS011;40859;50.560;7.268;2022-07-24T18:29:44;6.40;;;3.97;;
36555;SDS011;40859;50.560;7.268;2022-07-24T18:32:10;10.68;;;5.15;;
36555;SDS011;40859;50.560;7.268;2022-07-24T18:34:36;12.35;;;3.87;;
36555;SDS011;40859;50.560;7.268;2022-07-24T18:37:01;5.28;;;3.78;;
36555;SDS011;40859;50.560;7.268;2022-07-24T18:39:27;4.70;;;3.50;;
36555;SDS011;40859;50.560;7.268;2022-07-24T18:41:53;8.10;;;3.95;;
36555;SDS011;40859;50.560;7.268;2022-07-24T18:44:19;5.37;;;3.67;;
36555;SDS011;40859;50.560;7.268;2022-07-24T18:46:45;7.68;;;3.67;;
36555;SDS011;40859;50.560;7.268;2022-07-24T18:49:11;5.70;;;4.12;;
36555;SDS011;40859;50.560;7.268;2022-07-24T18:51:37;4.75;;;3.72;;
36555;SDS011;40859;50.560;7.268;2022-07-24T18:54:03;5.45;;;3.45;;
36555;SDS011;40859;50.560;7.268;2022-07-24T18:56:28;8.45;;;4.43;;
36555;SDS011;40859;50.560;7.268;2022-07-24T18:58:54;8.52;;;3.70;;
36555;SDS011;40859;50.560;7.268;2022-07-24T19:01:20;6.53;;;3.80;;
36555;SDS011;40859;50.560;7.268;2022-07-24T19:03:46;5.93;;;3.72;;
36555;SDS011;40859;50.560;7.268;2022-07-24T19:06:12;4.35;;;3.95;;
36555;SDS011;40859;50.560;7.268;2022-07-24T19:08:37;5.75;;;3.83;;
36555;SDS011;40859;50.560;7.268;2022-07-24T19:11:04;6.25;;;3.37;;
36555;SDS011;40859;50.560;7.268;2022-07-24T19:13:30;5.57;;;3.80;;
36555;SDS011;40859;50.560;7.268;2022-07-24T19:15:56;5.43;;;3.95;;
36555;SDS011;40859;50.560;7.268;2022-07-24T19:18:22;6.22;;;3.30;;
36555;SDS011;40859;50.560;7.268;2022-07-24T19:20:48;5.40;;;3.90;;
36555;SDS011;40859;50.560;7.268;2022-07-24T19:23:14;8.18;;;4.12;;
36555;SDS011;40859;50.560;7.268;2022-07-24T19:25:40;6.50;;;3.53;;
36555;SDS011;40859;50.560;7.268;2022-07-24T19:28:05;7.12;;;3.22;;
36555;SDS011;40859;50.560;7.268;2022-07-24T19:30:31;5.12;;;3.50;;
36555;SDS011;40859;50.560;7.268;2022-07-24T19:32:57;4.28;;;3.60;;
36555;SDS011;40859;50.560;7.268;2022-07-24T19:35:23;5.12;;;3.80;;
36555;SDS011;40859;50.560;7.268;2022-07-24T19:37:49;6.80;;;4.47;;
36555;SDS011;40859;50.560;7.268;2022-07-24T19:40:14;7.15;;;3.35;;
36555;SDS011;40859;50.560;7.268;2022-07-24T19:42:41;5.03;;;3.72;;
36555;SDS011;40859;50.560;7.268;2022-07-24T19:45:07;5.50;;;3.42;;
36555;SDS011;40859;50.560;7.268;2022-07-24T19:47:34;6.32;;;3.80;;
36555;SDS011;40859;50.560;7.268;2022-07-24T19:49:59;4.40;;;3.47;;
36555;SDS011;40859;50.560;7.268;2022-07-24T19:52:25;4.37;;;3.35;;
36555;SDS011;40859;50.560;7.268;2022-07-24T19:54:52;4.47;;;3.65;;
36555;SDS011;40859;50.560;7.268;2022-07-24T19:57:18;3.75;;;3.33;;
36555;SDS011;40859;50.560;7.268;2022-07-24T19:59:43;4.25;;;3.65;;
36555;SDS011;40859;50.560;7.268;2022-07-24T20:02:09;5.00;;;3.45;;
36555;SDS011;40859;50.560;7.268;2022-07-24T20:04:36;5.97;;;3.17;;
36555;SDS011;40859;50.560;7.268;2022-07-24T20:07:03;8.30;;;3.87;;
36555;SDS011;40859;50.560;7.268;2022-07-24T20:09:29;4.53;;;3.28;;
36555;SDS011;40859;50.560;7.268;2022-07-24T20:11:55;5.45;;;3.58;;
36555;SDS011;40859;50.560;7.268;2022-07-24T20:14:21;5.10;;;3.47;;
36555;SDS011;40859;50.560;7.268;2022-07-24T20:16:48;4.22;;;2.78;;
36555;SDS011;40859;50.560;7.268;2022-07-24T20:19:14;4.57;;;3.53;;
36555;SDS011;40859;50.560;7.268;2022-07-24T20:21:41;7.65;;;3.80;;
36555;SDS011;40859;50.560;7.268;2022-07-24T20:24:07;9.98;;;3.55;;
36555;SDS011;40859;50.560;7.268;2022-07-24T20:26:34;4.72;;;2.85;;
36555;SDS011;40859;50.560;7.268;2022-07-24T20:29:00;5.75;;;3.53;;
36555;SDS011;40859;50.560;7.268;2022-07-24T20:31:25;4.57;;;3.12;;
36555;SDS011;40859;50.560;7.268;2022-07-24T20:33:52;10.00;;;3.35;;
36555;SDS011;40859;50.560;7.268;2022-07-24T20:36:18;4.75;;;3.17;;
36555;SDS011;40859;50.560;7.268;2022-07-24T20:38:44;14.15;;;3.50;;
36555;SDS011;40859;50.560;7.268;2022-07-24T20:41:11;12.25;;;3.95;;
36555;SDS011;40859;50.560;7.268;2022-07-24T20:43:38;4.18;;;3.45;;
36555;SDS011;40859;50.560;7.268;2022-07-24T20:46:04;5.75;;;3.90;;
36555;SDS011;40859;50.560;7.268;2022-07-24T20:48:30;6.85;;;3.78;;
36555;SDS011;40859;50.560;7.268;2022-07-24T20:50:57;6.57;;;3.40;;
36555;SDS011;40859;50.560;7.268;2022-07-24T20:53:22;10.05;;;3.10;;
36555;SDS011;40859;50.560;7.268;2022-07-24T20:55:48;4.72;;;3.40;;
36555;SDS011;40859;50.560;7.268;2022-07-24T20:58:14;5.85;;;3.92;;
36555;SDS011;40859;50.560;7.268;2022-07-24T21:00:40;6.40;;;3.80;;
36555;SDS011;40859;50.560;7.268;2022-07-24T21:03:06;9.48;;;4.10;;
36555;SDS011;40859;50.560;7.268;2022-07-24T21:05:32;6.15;;;3.75;;
36555;SDS011;40859;50.560;7.268;2022-07-24T21:07:57;5.75;;;3.62;;
36555;SDS011;40859;50.560;7.268;2022-07-24T21:10:26;4.25;;;3.33;;
36555;SDS011;40859;50.560;7.268;2022-07-24T21:12:52;4.40;;;3.08;;
36555;SDS011;40859;50.560;7.268;2022-07-24T21:15:18;11.50;;;3.55;;
36555;SDS011;40859;50.560;7.268;2022-07-24T21:17:44;6.82;;;3.60;;
36555;SDS011;40859;50.560;7.268;2022-07-24T21:20:11;5.70;;;3.15;;
36555;SDS011;40859;50.560;7.268;2022-07-24T21:22:38;9.63;;;3.60;;
36555;SDS011;40859;50.560;7.268;2022-07-24T21:25:04;8.15;;;3.92;;
36555;SDS011;40859;50.560;7.268;2022-07-24T21:27:31;5.68;;;3.83;;
36555;SDS011;40859;50.560;7.268;2022-07-24T21:29:57;10.52;;;3.12;;
36555;SDS011;40859;50.560;7.268;2022-07-24T21:32:23;6.68;;;3.97;;
36555;SDS011;40859;50.560;7.268;2022-07-24T21:34:48;7.05;;;4.95;;
36555;SDS011;40859;50.560;7.268;2022-07-24T21:37:14;8.07;;;5.10;;
36555;SDS011;40859;50.560;7.268;2022-07-24T21:39:40;7.45;;;5.32;;
36555;SDS011;40859;50.560;7.268;2022-07-24T21:42:06;10.07;;;5.20;;
36555;SDS011;40859;50.560;7.268;2022-07-24T21:44:32;6.20;;;4.80;;
36555;SDS011;40859;50.560;7.268;2022-07-24T21:46:58;10.70;;;5.68;;
36555;SDS011;40859;50.560;7.268;2022-07-24T21:49:24;8.32;;;5.47;;
36555;SDS011;40859;50.560;7.268;2022-07-24T21:51:50;12.77;;;6.12;;
36555;SDS011;40859;50.560;7.268;2022-07-24T21:54:16;7.35;;;5.03;;
36555;SDS011;40859;50.560;7.268;2022-07-24T21:56:43;7.45;;;5.50;;
36555;SDS011;40859;50.560;7.268;2022-07-24T21:59:08;10.35;;;5.25;;
36555;SDS011;40859;50.560;7.268;2022-07-24T22:01:34;6.62;;;5.15;;
36555;SDS011;40859;50.560;7.268;2022-07-24T22:04:01;10.43;;;5.10;;
36555;SDS011;40859;50.560;7.268;2022-07-24T22:06:27;9.13;;;5.70;;
36555;SDS011;40859;50.560;7.268;2022-07-24T22:08:53;9.40;;;5.72;;
36555;SDS011;40859;50.560;7.268;2022-07-24T22:11:19;16.95;;;5.22;;
36555;SDS011;40859;50.560;7.268;2022-07-24T22:13:45;10.43;;;5.65;;
36555;SDS011;40859;50.560;7.268;2022-07-24T22:16:12;15.07;;;5.22;;
36555;SDS011;40859;50.560;7.268;2022-07-24T22:18:38;8.57;;;5.60;;
36555;SDS011;40859;50.560;7.268;2022-07-24T22:21:04;6.75;;;5.65;;
36555;SDS011;40859;50.560;7.268;2022-07-24T22:23:30;7.25;;;5.60;;
36555;SDS011;40859;50.560;7.268;2022-07-24T22:26:05;15.45;;;5.78;;
36555;SDS011;40859;50.560;7.268;2022-07-24T22:28:31;11.15;;;6.03;;
36555;SDS011;40859;50.560;7.268;2022-07-24T22:30:57;8.32;;;6.12;;
36555;SDS011;40859;50.560;7.268;2022-07-24T22:33:23;12.60;;;6.45;;
36555;SDS011;40859;50.560;7.268;2022-07-24T22:35:49;10.00;;;5.45;;
36555;SDS011;40859;50.560;7.268;2022-07-24T22:38:16;10.18;;;6.85;;
36555;SDS011;40859;50.560;7.268;2022-07-24T22:40:42;10.35;;;5.50;;
36555;SDS011;40859;50.560;7.268;2022-07-24T22:43:08;6.62;;;5.57;;
36555;SDS011;40859;50.560;7.268;2022-07-24T22:45:34;12.32;;;6.32;;
36555;SDS011;40859;50.560;7.268;2022-07-24T22:48:00;12.23;;;5.82;;
36555;SDS011;40859;50.560;7.268;2022-07-24T22:50:28;8.00;;;5.68;;
36555;SDS011;40859;50.560;7.268;2022-07-24T22:52:54;11.50;;;6.20;;
36555;SDS011;40859;50.560;7.268;2022-07-24T22:55:20;12.02;;;5.85;;
36555;SDS011;40859;50.560;7.268;2022-07-24T22:57:47;9.73;;;5.43;;
36555;SDS011;40859;50.560;7.268;2022-07-24T23:00:15;8.90;;;6.18;;
36555;SDS011;40859;50.560;7.268;2022-07-24T23:02:42;8.55;;;5.87;;
36555;SDS011;40859;50.560;7.268;2022-07-24T23:05:09;10.77;;;5.78;;
36555;SDS011;40859;50.560;7.268;2022-07-24T23:07:35;7.62;;;5.57;;
36555;SDS011;40859;50.560;7.268;2022-07-24T23:10:00;11.90;;;6.47;;
36555;SDS011;40859;50.560;7.268;2022-07-24T23:12:28;7.87;;;6.05;;
36555;SDS011;40859;50.560;7.268;2022-07-24T23:14:54;12.13;;;6.28;;
36555;SDS011;40859;50.560;7.268;2022-07-24T23:17:20;9.35;;;6.65;;
36555;SDS011;40859;50.560;7.268;2022-07-24T23:19:46;8.55;;;5.32;;
36555;SDS011;40859;50.560;7.268;2022-07-24T23:22:15;6.90;;;5.30;;
36555;SDS011;40859;50.560;7.268;2022-07-24T23:26:08;9.63;;;5.55;;
36555;SDS011;40859;50.560;7.268;2022-07-24T23:28:34;10.38;;;6.40;;
36555;SDS011;40859;50.560;7.268;2022-07-24T23:31:01;8.80;;;6.12;;
36555;SDS011;40859;50.560;7.268;2022-07-24T23:33:27;10.98;;;6.03;;
36555;SDS011;40859;50.560;7.268;2022-07-24T23:35:52;10.98;;;6.45;;
36555;SDS011;40859;50.560;7.268;2022-07-24T23:38:18;8.15;;;5.72;;
36555;SDS011;40859;50.560;7.268;2022-07-24T23:40:44;10.18;;;5.75;;
36555;SDS011;40859;50.560;7.268;2022-07-24T23:43:10;9.35;;;6.50;;
36555;SDS011;40859;50.560;7.268;2022-07-24T23:45:36;8.85;;;6.05;;
36555;SDS011;40859;50.560;7.268;2022-07-24T23:48:02;8.82;;;5.78;;
36555;SDS011;40859;50.560;7.268;2022-07-24T23:50:28;8.07;;;6.37;;
36555;SDS011;40859;50.560;7.268;2022-07-24T23:52:55;7.60;;;6.30;;
36555;SDS011;40859;50.560;7.268;2022-07-24T23:55:21;13.13;;;6.32;;
36555;SDS011;40859;50.560;7.268;2022-07-24T23:57:47;12.55;;;6.30;;
